createdAt,value
2024-01-05T00:00:26.591Z,7.99
2024-01-05T00:04:28.268Z,7.99
2024-01-05T00:08:29.876Z,7.99
2024-01-05T00:12:31.662Z,7.95
2024-01-05T00:16:33.306Z,7.94
2024-01-05T00:20:34.909Z,7.94
2024-01-05T00:24:38.115Z,7.92
2024-01-05T00:28:39.747Z,7.89
2024-01-05T00:32:41.585Z,7.86
2024-01-05T00:36:43.694Z,7.85
2024-01-05T00:40:45.401Z,7.84
2024-01-05T00:44:46.997Z,7.82
2024-01-05T00:48:48.725Z,7.81
2024-01-05T00:52:50.401Z,7.77
2024-01-05T00:56:52.517Z,7.74
2024-01-05T01:00:54.402Z,7.73
2024-01-05T01:04:56.136Z,7.70
2024-01-05T01:08:57.751Z,7.71
2024-01-05T01:13:02.191Z,7.69
2024-01-05T01:17:04.203Z,7.67
2024-01-05T01:21:05.887Z,7.66
2024-01-05T01:25:07.829Z,7.66
2024-01-05T01:29:09.617Z,7.62
2024-01-05T01:33:11.492Z,7.58
2024-01-05T01:37:13.174Z,7.60
2024-01-05T01:41:15.234Z,7.60
2024-01-05T01:45:16.946Z,7.60
2024-01-05T01:49:19.036Z,7.57
2024-01-05T01:53:22.901Z,7.52
2024-01-05T01:57:25.292Z,7.52
2024-01-05T02:01:28.172Z,7.51
2024-01-05T02:05:29.795Z,7.48
2024-01-05T02:09:31.945Z,7.47
2024-01-05T02:13:35.618Z,7.47
2024-01-05T02:17:37.369Z,7.45
2024-01-05T02:21:43.243Z,7.41
2024-01-05T02:25:44.913Z,7.41
2024-01-05T02:29:46.708Z,7.36
2024-01-05T02:33:48.427Z,7.34
2024-01-05T02:37:50.135Z,7.30
2024-01-05T02:41:51.786Z,7.29
2024-01-05T02:45:53.437Z,7.30
2024-01-05T02:49:55.139Z,7.34
2024-01-05T02:53:56.777Z,7.39
2024-01-05T02:57:58.378Z,7.42
2024-01-05T03:02:01.336Z,7.45
2024-01-05T03:06:03.054Z,7.47
2024-01-05T03:10:05.114Z,7.51
2024-01-05T03:14:06.695Z,7.51
2024-01-05T03:18:08.394Z,7.52
2024-01-05T03:22:09.984Z,7.55
2024-01-05T03:26:11.690Z,7.57
2024-01-05T03:30:13.581Z,7.62
2024-01-05T03:34:16.416Z,7.62
2024-01-05T03:38:18.174Z,7.60
2024-01-05T03:42:19.931Z,7.57
2024-01-05T03:46:21.779Z,7.57
2024-01-05T03:50:23.388Z,7.57
2024-01-05T03:54:25.062Z,7.57
2024-01-05T03:58:26.745Z,7.54
2024-01-05T04:02:28.454Z,7.55
2024-01-05T04:06:30.212Z,7.52
2024-01-05T04:10:31.869Z,7.52
2024-01-05T04:14:36.463Z,7.52
2024-01-05T04:18:38.180Z,7.54
2024-01-05T04:22:39.945Z,7.52
2024-01-05T04:26:41.854Z,7.52
2024-01-05T04:30:43.883Z,7.54
2024-01-05T04:34:45.586Z,7.55
2024-01-05T04:38:47.702Z,7.54
2024-01-05T04:42:49.269Z,7.57
2024-01-05T04:46:50.851Z,7.55
2024-01-05T04:50:52.734Z,7.58
2024-01-05T04:54:54.368Z,7.58
2024-01-05T04:58:55.984Z,7.55
2024-01-05T05:02:57.623Z,7.54
2024-01-05T05:06:59.385Z,7.55
2024-01-05T05:11:01.082Z,7.54
2024-01-05T05:15:02.833Z,7.52
2024-01-05T05:19:05.374Z,7.55
2024-01-05T05:23:07.152Z,7.57
2024-01-05T05:27:08.818Z,7.58
2024-01-05T05:31:11.313Z,7.63
2024-01-05T05:35:13.125Z,7.63
2024-01-05T05:39:15.623Z,7.67
2024-01-05T05:43:17.399Z,7.71
2024-01-05T05:47:18.996Z,7.73
2024-01-05T05:51:20.551Z,7.79
2024-01-05T05:55:22.174Z,7.82
2024-01-05T05:59:24.439Z,7.84
2024-01-05T06:03:26.280Z,7.85
2024-01-05T06:07:27.978Z,7.86
2024-01-05T06:11:29.662Z,7.88
2024-01-05T06:15:31.273Z,7.91
2024-01-05T06:19:33.046Z,7.88
2024-01-05T06:23:34.834Z,7.91
2024-01-05T06:27:39.295Z,7.89
2024-01-05T06:31:42.294Z,7.89
2024-01-05T06:35:44.138Z,7.89
2024-01-05T06:39:45.847Z,7.85
2024-01-05T06:43:47.641Z,7.88
2024-01-05T06:47:49.323Z,7.89
2024-01-05T06:51:51.064Z,7.91
2024-01-05T06:55:52.802Z,7.92
2024-01-05T06:59:54.501Z,7.94
2024-01-05T07:03:56.210Z,7.91
2024-01-05T07:07:57.991Z,7.89
2024-01-05T07:12:00.804Z,7.91
2024-01-05T07:16:02.490Z,7.89
2024-01-05T07:20:04.399Z,7.91
2024-01-05T07:24:06.192Z,7.92
2024-01-05T07:28:07.763Z,7.91
2024-01-05T07:32:09.338Z,7.92
2024-01-05T07:36:10.994Z,7.92
2024-01-05T07:40:13.535Z,7.92
2024-01-05T07:44:15.128Z,7.92
2024-01-05T07:48:16.960Z,7.94
2024-01-05T07:52:18.728Z,7.94
2024-01-05T07:56:20.333Z,7.96
2024-01-05T08:00:22.176Z,7.96
2024-01-05T08:04:23.992Z,8.00
2024-01-05T08:08:25.821Z,8.00
2024-01-05T08:12:27.497Z,8.03
2024-01-05T08:16:29.162Z,8.04
2024-01-05T08:20:32.983Z,8.09
2024-01-05T08:24:36.065Z,8.13
2024-01-05T08:28:37.683Z,8.13
2024-01-05T08:32:40.018Z,8.13
2024-01-05T08:36:41.915Z,8.14
2024-01-05T08:40:43.704Z,8.21
2024-01-05T08:44:45.292Z,8.25
2024-01-05T08:48:47.117Z,8.28
2024-01-05T08:52:49.902Z,8.34
2024-01-05T08:56:51.717Z,8.45
2024-01-05T09:00:53.413Z,8.52
2024-01-05T09:04:55.812Z,8.58
2024-01-05T09:08:57.535Z,8.60
2024-01-05T09:12:59.587Z,8.60
2024-01-05T09:17:01.982Z,8.61
2024-01-05T09:21:04.093Z,8.64
2024-01-05T09:25:07.278Z,8.76
2024-01-05T09:29:08.904Z,8.85
2024-01-05T09:33:10.919Z,8.88
2024-01-05T09:37:12.648Z,8.93
2024-01-05T09:41:14.572Z,8.97
2024-01-05T09:45:17.007Z,9.00
2024-01-05T09:49:19.479Z,9.03
2024-01-05T09:53:21.216Z,9.03
2024-01-05T09:57:23.475Z,9.06
2024-01-05T10:01:27.208Z,9.16
2024-01-05T10:05:31.509Z,9.27
2024-01-05T10:09:33.290Z,9.44
2024-01-05T10:13:35.046Z,9.58
2024-01-05T10:17:37.243Z,9.75
2024-01-05T10:21:40.371Z,9.95
2024-01-05T10:25:42.046Z,10.11
2024-01-05T10:29:45.429Z,10.18
2024-01-05T10:33:56.103Z,10.25
2024-01-05T10:38:09.973Z,10.25
2024-01-05T10:42:22.945Z,10.18
2024-01-05T10:46:26.117Z,10.18
2024-01-05T10:50:27.793Z,10.22
2024-01-05T10:54:31.916Z,10.26
2024-01-05T10:58:33.875Z,10.31
2024-01-05T11:02:41.753Z,10.35
2024-01-05T11:06:43.806Z,10.38
2024-01-05T11:11:03.718Z,10.43
2024-01-05T11:15:15.141Z,10.49
2024-01-05T11:19:46.542Z,10.51
2024-01-05T11:23:50.553Z,10.51
2024-01-05T11:27:52.251Z,10.54
2024-01-05T11:31:54.384Z,10.57
2024-01-05T11:35:56.239Z,10.66
2024-01-05T11:40:01.732Z,10.73
2024-01-05T11:44:03.669Z,10.80
2024-01-05T11:48:05.959Z,10.86
2024-01-05T11:52:08.891Z,10.88
2024-01-05T11:56:12.444Z,10.88
2024-01-05T12:00:14.643Z,10.88
2024-01-05T12:04:16.319Z,10.87
2024-01-05T12:08:18.516Z,10.86
2024-01-05T12:12:20.313Z,10.88
2024-01-05T12:16:23.182Z,10.94
2024-01-05T12:20:25.052Z,10.94
2024-01-05T12:24:26.746Z,10.94
2024-01-05T12:28:39.155Z,10.94
2024-01-05T12:32:41.773Z,10.95
2024-01-05T12:36:44.370Z,10.95
2024-01-05T12:40:46.142Z,10.95
2024-01-05T12:44:47.771Z,10.99
2024-01-05T12:48:49.836Z,11.03
2024-01-05T12:52:51.740Z,11.06
2024-01-05T12:56:55.297Z,11.09
2024-01-05T13:01:00.352Z,11.05
2024-01-05T13:05:02.089Z,11.08
2024-01-05T13:09:03.977Z,11.08
2024-01-05T13:13:05.663Z,11.06
2024-01-05T13:17:07.738Z,11.05
2024-01-05T13:21:09.537Z,11.03
2024-01-05T13:25:12.909Z,11.08
2024-01-05T13:29:14.511Z,11.16
2024-01-05T13:33:16.304Z,11.27
2024-01-05T13:37:18.024Z,11.35
2024-01-05T13:41:19.728Z,11.42
2024-01-05T13:45:21.567Z,11.41
2024-01-05T13:49:27.005Z,11.30
2024-01-05T13:53:28.945Z,11.26
2024-01-05T13:57:30.584Z,11.21
2024-01-05T14:01:32.254Z,11.19
2024-01-05T14:05:33.986Z,11.13
2024-01-05T14:09:35.753Z,11.09
2024-01-05T14:13:37.397Z,11.03
2024-01-05T14:17:39.055Z,10.95
2024-01-05T14:21:40.783Z,10.88
2024-01-05T14:25:42.752Z,10.83
2024-01-05T14:29:44.445Z,10.72
2024-01-05T14:33:46.273Z,10.65
2024-01-05T14:37:47.920Z,10.55
2024-01-05T14:41:49.666Z,10.47
2024-01-05T14:45:52.161Z,10.42
2024-01-05T14:49:53.832Z,10.35
2024-01-05T14:53:55.562Z,10.31
2024-01-05T14:57:57.215Z,10.24
2024-01-05T15:02:00.118Z,10.17
2024-01-05T15:06:01.934Z,10.13
2024-01-05T15:10:04.002Z,10.06
2024-01-05T15:14:05.824Z,9.98
2024-01-05T15:18:07.659Z,9.92
2024-01-05T15:22:09.499Z,9.86
2024-01-05T15:26:11.135Z,9.78
2024-01-05T15:30:13.582Z,9.74
2024-01-05T15:34:15.461Z,9.67
2024-01-05T15:38:17.484Z,9.60
2024-01-05T15:42:19.376Z,9.55
2024-01-05T15:46:21.994Z,9.48
2024-01-05T15:50:24.906Z,9.38
2024-01-05T15:54:27.465Z,9.37
2024-01-05T15:58:29.210Z,9.30
2024-01-05T16:02:30.857Z,9.22
2024-01-05T16:06:32.697Z,9.19
2024-01-05T16:10:34.338Z,9.12
2024-01-05T16:14:46.985Z,9.06
2024-01-05T16:18:48.732Z,9.00
2024-01-05T16:22:50.468Z,8.97
2024-01-05T16:26:52.130Z,8.93
2024-01-05T16:30:53.872Z,8.89
2024-01-05T16:34:55.590Z,8.85
2024-01-05T16:38:57.228Z,8.80
2024-01-05T16:42:58.795Z,8.76
2024-01-05T16:47:00.413Z,8.73
2024-01-05T16:51:02.126Z,8.70
2024-01-05T16:55:05.005Z,8.68
2024-01-05T16:59:06.803Z,8.65
2024-01-05T17:03:10.461Z,8.63
2024-01-05T17:07:12.206Z,8.58
2024-01-05T17:11:13.969Z,8.57
2024-01-05T17:15:15.783Z,8.54
2024-01-05T17:19:17.662Z,8.46
2024-01-05T17:23:19.458Z,8.39
2024-01-05T17:27:21.135Z,8.29
2024-01-05T17:31:22.867Z,8.22
2024-01-05T17:35:24.486Z,8.14
2024-01-05T17:39:26.045Z,8.10
2024-01-05T17:43:27.753Z,8.12
2024-01-05T17:47:29.322Z,8.09
2024-01-05T17:51:40.690Z,8.10
2024-01-05T17:55:42.386Z,8.09
2024-01-05T17:59:44.056Z,8.07
2024-01-05T18:03:45.914Z,8.07
2024-01-05T18:07:49.040Z,8.06
2024-01-05T18:11:50.947Z,8.04
2024-01-05T18:15:52.577Z,8.04
2024-01-05T18:19:56.352Z,8.03
2024-01-05T18:24:01.447Z,8.03
2024-01-05T18:28:07.151Z,8.02
2024-01-05T18:32:09.656Z,8.00
2024-01-05T18:36:11.479Z,7.99
2024-01-05T18:40:13.382Z,8.00
2024-01-05T18:44:15.597Z,7.99
2024-01-05T18:48:17.729Z,7.96
2024-01-05T18:52:19.404Z,7.95
2024-01-05T18:56:21.183Z,7.94
2024-01-05T19:00:22.920Z,7.92
2024-01-05T19:04:24.787Z,7.89
2024-01-05T19:08:26.608Z,7.88
2024-01-05T19:12:28.371Z,7.85
2024-01-05T19:16:30.019Z,7.85
2024-01-05T19:20:32.940Z,7.82
2024-01-05T19:24:34.761Z,7.84
2024-01-05T19:28:36.473Z,7.84
2024-01-05T19:32:38.123Z,7.82
2024-01-05T19:36:44.659Z,7.81
2024-01-05T19:40:46.501Z,7.81
2024-01-05T19:44:48.539Z,7.77
2024-01-05T19:48:50.204Z,7.76
2024-01-05T19:52:51.839Z,7.74
2024-01-05T19:56:55.365Z,7.70
2024-01-05T20:00:57.069Z,7.67
2024-01-05T20:05:00.470Z,7.66
2024-01-05T20:09:02.106Z,7.62
2024-01-05T20:13:04.552Z,7.60
2024-01-05T20:17:06.285Z,7.58
2024-01-05T20:21:16.998Z,7.57
2024-01-05T20:25:18.841Z,7.55
2024-01-05T20:29:21.343Z,7.51
2024-01-05T20:33:25.333Z,7.51
2024-01-05T20:37:27.095Z,7.50
2024-01-05T20:41:28.813Z,7.48
2024-01-05T20:45:30.689Z,7.47
2024-01-05T20:49:32.521Z,7.45
2024-01-05T20:53:34.282Z,7.44
2024-01-05T20:57:36.051Z,7.42
2024-01-05T21:01:41.684Z,7.39
2024-01-05T21:05:43.437Z,7.37
2024-01-05T21:09:45.276Z,7.37
2024-01-05T21:13:46.994Z,7.37
2024-01-05T21:17:49.524Z,7.37
2024-01-05T21:21:53.318Z,7.37
2024-01-05T21:25:55.010Z,7.36
2024-01-05T21:29:56.805Z,7.37
2024-01-05T21:33:58.605Z,7.36
2024-01-05T21:38:01.444Z,7.34
2024-01-05T21:42:03.440Z,7.32
2024-01-05T21:46:05.266Z,7.29
2024-01-05T21:50:07.566Z,7.26
2024-01-05T21:54:09.250Z,7.23
2024-01-05T21:58:13.676Z,7.21
2024-01-05T22:02:15.989Z,7.19
2024-01-05T22:06:17.853Z,7.19
2024-01-05T22:10:19.675Z,7.18
2024-01-05T22:14:21.399Z,7.19
2024-01-05T22:18:23.173Z,7.16
2024-01-05T22:22:25.003Z,7.14
2024-01-05T22:26:34.089Z,7.12
2024-01-05T22:30:35.907Z,7.11
2024-01-05T22:34:38.014Z,7.08
2024-01-05T22:38:40.546Z,7.07
2024-01-05T22:42:42.339Z,7.07
2024-01-05T22:46:44.178Z,7.04
2024-01-05T22:50:47.765Z,6.99
2024-01-05T22:54:49.412Z,6.99
2024-01-05T22:58:51.060Z,6.96
2024-01-05T23:02:52.728Z,6.97
2024-01-05T23:06:56.267Z,6.93
2024-01-05T23:10:58.341Z,6.93
2024-01-05T23:15:00.073Z,6.91
2024-01-05T23:19:01.804Z,6.90
2024-01-05T23:23:04.017Z,6.90
2024-01-05T23:27:05.671Z,6.89
2024-01-05T23:31:09.465Z,6.86
2024-01-05T23:35:11.770Z,6.83
2024-01-05T23:39:13.501Z,6.82
2024-01-05T23:43:15.204Z,6.86
2024-01-05T23:47:17.060Z,6.81
2024-01-05T23:51:18.770Z,6.79
2024-01-05T23:55:20.428Z,6.75
2024-01-05T23:59:21.984Z,6.75
